createdAt,value
2023-04-14T00:01:43.619Z,3.72
2023-04-14T00:04:14.689Z,4.90
2023-04-14T00:06:44.268Z,3.72
2023-04-14T00:09:13.656Z,4.20
2023-04-14T00:11:42.944Z,4.47
2023-04-14T00:14:12.249Z,3.83
2023-04-14T00:20:44.488Z,4.42
2023-04-14T00:23:13.779Z,4.13
2023-04-14T00:25:43.261Z,4.47
2023-04-14T00:28:12.734Z,4.70
2023-04-14T00:30:42.405Z,4.30
2023-04-14T00:33:11.749Z,4.47
2023-04-14T00:35:41.034Z,4.60
2023-04-14T00:38:10.688Z,4.78
2023-04-14T00:40:39.974Z,7.35
2023-04-14T00:43:09.243Z,6.95
2023-04-14T00:45:41.695Z,9.18
2023-04-14T00:48:11.140Z,5.62
2023-04-14T00:50:40.755Z,5.12
2023-04-14T00:53:10.395Z,5.00
2023-04-14T00:55:41.294Z,4.67
2023-04-14T00:58:11.364Z,5.45
2023-04-14T01:00:40.946Z,5.60
2023-04-14T01:03:11.866Z,6.60
2023-04-14T01:05:41.618Z,5.33
2023-04-14T01:08:11.237Z,5.87
2023-04-14T01:10:44.876Z,6.95
2023-04-14T01:13:23.944Z,6.17
2023-04-14T01:15:56.723Z,6.03
2023-04-14T01:18:47.700Z,5.60
2023-04-14T01:21:19.439Z,5.60
2023-04-14T01:24:02.556Z,5.45
2023-04-14T01:26:32.586Z,5.08
2023-04-14T01:29:33.896Z,5.10
2023-04-14T01:32:10.221Z,5.10
2023-04-14T01:34:57.636Z,5.10
2023-04-14T01:37:34.367Z,5.20
2023-04-14T01:40:11.509Z,5.15
2023-04-14T01:42:44.116Z,4.78
2023-04-14T01:45:19.303Z,5.17
2023-04-14T01:47:49.425Z,4.85
2023-04-14T01:50:20.678Z,5.80
2023-04-14T01:52:53.684Z,6.03
2023-04-14T01:55:24.736Z,5.28
2023-04-14T01:57:55.354Z,5.83
2023-04-14T02:00:26.203Z,5.97
2023-04-14T02:02:56.186Z,6.03
2023-04-14T02:05:26.653Z,6.10
2023-04-14T02:07:56.632Z,5.17
2023-04-14T02:10:26.402Z,5.78
2023-04-14T02:12:57.955Z,5.92
2023-04-14T02:15:28.653Z,5.73
2023-04-14T02:17:58.846Z,5.97
2023-04-14T02:20:29.923Z,6.80
2023-04-14T02:22:59.452Z,6.97
2023-04-14T02:25:31.900Z,6.25
2023-04-14T02:28:07.574Z,6.50
2023-04-14T02:30:41.771Z,6.65
2023-04-14T02:33:17.133Z,6.22
2023-04-14T02:35:58.816Z,6.20
2023-04-14T02:38:39.911Z,6.28
2023-04-14T02:41:15.653Z,6.62
2023-04-14T02:43:48.360Z,7.65
2023-04-14T02:46:18.811Z,6.90
2023-04-14T02:48:49.030Z,6.22
2023-04-14T02:51:19.536Z,6.15
2023-04-14T02:53:49.477Z,6.90
2023-04-14T02:56:20.822Z,6.75
2023-04-14T02:58:52.513Z,6.60
2023-04-14T03:01:23.418Z,6.50
2023-04-14T03:03:54.123Z,6.33
2023-04-14T03:06:26.196Z,6.87
2023-04-14T03:08:56.607Z,6.50
2023-04-14T03:11:26.963Z,6.92
2023-04-14T03:13:57.916Z,7.40
2023-04-14T03:16:27.818Z,6.92
2023-04-14T03:18:59.027Z,6.97
2023-04-14T03:21:30.165Z,6.58
2023-04-14T03:24:00.753Z,7.28
2023-04-14T03:26:31.285Z,8.03
2023-04-14T03:29:02.853Z,7.35
2023-04-14T03:31:34.210Z,7.75
2023-04-14T03:34:05.951Z,8.18
2023-04-14T03:36:38.224Z,7.78
2023-04-14T03:39:09.219Z,7.92
2023-04-14T03:41:42.458Z,8.05
2023-04-14T03:44:14.137Z,9.05
2023-04-14T03:46:44.704Z,8.10
2023-04-14T03:49:16.953Z,8.33
2023-04-14T03:51:48.397Z,8.35
2023-04-14T03:54:19.085Z,8.15
2023-04-14T03:56:51.574Z,7.70
2023-04-14T04:01:51.023Z,8.15
2023-04-14T04:04:21.412Z,7.55
2023-04-14T04:06:52.022Z,8.10
2023-04-14T04:09:22.480Z,7.70
2023-04-14T04:11:53.264Z,7.87
2023-04-14T04:16:55.792Z,7.35
2023-04-14T04:19:25.715Z,7.97
2023-04-14T04:21:57.375Z,7.80
2023-04-14T04:24:28.597Z,8.78
2023-04-14T04:26:59.658Z,8.33
2023-04-14T04:29:29.314Z,9.18
2023-04-14T04:31:59.453Z,9.73
2023-04-14T04:34:32.507Z,9.18
2023-04-14T04:37:02.338Z,10.28
2023-04-14T04:39:31.996Z,10.55
2023-04-14T04:42:04.816Z,9.65
2023-04-14T04:47:03.798Z,11.63
2023-04-14T04:49:33.349Z,10.98
2023-04-14T04:52:04.785Z,10.40
2023-04-14T04:54:34.339Z,10.25
2023-04-14T04:57:03.664Z,10.75
2023-04-14T04:59:33.376Z,10.38
2023-04-14T05:02:02.756Z,9.00
2023-04-14T05:04:32.412Z,9.70
2023-04-14T05:07:03.410Z,9.25
2023-04-14T05:09:32.993Z,9.03
2023-04-14T05:12:02.547Z,9.05
2023-04-14T05:14:31.827Z,8.95
2023-04-14T05:17:01.495Z,9.20
2023-04-14T05:19:30.779Z,9.43
2023-04-14T05:22:00.442Z,8.70
2023-04-14T05:24:29.720Z,8.78
2023-04-14T05:29:30.471Z,10.05
2023-04-14T05:31:59.754Z,11.05
2023-04-14T05:34:29.374Z,11.00
2023-04-14T05:36:58.639Z,10.58
2023-04-14T05:39:27.922Z,9.98
2023-04-14T05:41:57.635Z,8.48
2023-04-14T05:44:27.085Z,8.25
2023-04-14T05:46:56.539Z,7.58
2023-04-14T05:49:26.043Z,6.53
2023-04-14T05:51:58.246Z,5.33
2023-04-14T05:54:27.521Z,4.70
2023-04-14T05:56:57.648Z,5.08
2023-04-14T05:59:27.712Z,4.83
2023-04-14T06:01:57.321Z,4.40
2023-04-14T06:04:27.377Z,4.72
2023-04-14T06:06:58.577Z,4.62
2023-04-14T06:09:28.229Z,4.22
2023-04-14T06:11:58.176Z,4.60
2023-04-14T06:14:27.579Z,4.58
2023-04-14T06:16:57.576Z,4.28
2023-04-14T06:19:27.465Z,4.70
2023-04-14T06:21:56.814Z,4.28
2023-04-14T06:24:26.163Z,4.50
2023-04-14T06:26:55.471Z,4.40
2023-04-14T06:29:24.766Z,4.42
2023-04-14T06:31:55.082Z,5.45
2023-04-14T06:34:24.859Z,5.22
2023-04-14T06:36:55.923Z,5.25
2023-04-14T06:39:26.426Z,5.40
2023-04-14T06:41:56.752Z,5.30
2023-04-14T06:44:26.398Z,5.00
2023-04-14T06:46:57.162Z,5.00
2023-04-14T06:49:26.589Z,5.00
2023-04-14T06:51:55.866Z,5.40
2023-04-14T06:54:25.276Z,5.58
2023-04-14T06:56:54.570Z,5.45
2023-04-14T06:59:25.441Z,5.70
2023-04-14T07:01:55.397Z,5.15
2023-04-14T07:04:24.950Z,5.65
2023-04-14T07:06:54.700Z,5.42
2023-04-14T07:09:24.659Z,5.22
2023-04-14T07:11:53.994Z,5.75
2023-04-14T07:14:23.368Z,5.20
2023-04-14T07:16:53.370Z,5.28
2023-04-14T07:19:22.848Z,5.33
2023-04-14T07:21:52.398Z,4.53
2023-04-14T07:24:21.830Z,4.85
2023-04-14T07:26:51.426Z,4.92
2023-04-14T07:29:21.156Z,4.62
2023-04-14T07:31:50.838Z,4.37
2023-04-14T07:34:20.671Z,4.42
2023-04-14T07:36:50.624Z,4.30
2023-04-14T07:39:23.273Z,4.90
2023-04-14T07:44:21.602Z,5.03
2023-04-14T07:46:50.953Z,5.17
2023-04-14T07:49:20.828Z,5.45
2023-04-14T07:51:50.938Z,5.40
2023-04-14T07:54:20.326Z,5.12
2023-04-14T07:56:49.734Z,5.00
2023-04-14T07:59:19.093Z,5.28
2023-04-14T08:01:48.709Z,4.80
2023-04-14T08:04:18.504Z,4.85
2023-04-14T08:06:47.852Z,5.30
2023-04-14T08:09:17.469Z,5.72
2023-04-14T08:11:46.708Z,5.90
2023-04-14T08:14:16.373Z,5.92
2023-04-14T08:16:45.718Z,5.47
2023-04-14T08:19:15.381Z,4.55
2023-04-14T08:21:44.600Z,4.10
2023-04-14T08:24:14.164Z,3.75
2023-04-14T08:26:43.613Z,3.60
2023-04-14T08:29:12.872Z,3.20
2023-04-14T08:31:42.175Z,2.30
2023-04-14T08:34:11.565Z,2.27
2023-04-14T08:36:42.131Z,1.80
2023-04-14T08:39:11.390Z,2.10
2023-04-14T08:41:41.511Z,1.77
2023-04-14T08:44:10.826Z,1.72
2023-04-14T08:46:40.545Z,1.82
2023-04-14T08:49:13.104Z,1.87
2023-04-14T08:54:15.548Z,1.70
2023-04-14T08:56:45.042Z,2.00
2023-04-14T08:59:14.324Z,1.85
2023-04-14T09:01:43.923Z,1.60
2023-04-14T09:04:14.715Z,1.50
2023-04-14T09:06:44.369Z,1.40
2023-04-14T09:09:14.442Z,1.60
2023-04-14T09:11:44.164Z,1.98
2023-04-14T09:14:14.594Z,1.70
2023-04-14T09:16:43.908Z,1.92
2023-04-14T09:19:13.218Z,1.92
2023-04-14T09:21:53.665Z,1.85
2023-04-14T09:24:13.892Z,1.70
2023-04-14T09:26:43.235Z,1.60
2023-04-14T09:29:12.501Z,1.60
2023-04-14T09:31:42.659Z,1.70
2023-04-14T09:34:20.887Z,1.75
2023-04-14T09:37:07.265Z,1.50
2023-04-14T09:39:39.556Z,1.70
2023-04-14T09:42:08.835Z,1.80
2023-04-14T09:44:55.483Z,1.57
2023-04-14T09:47:26.219Z,1.70
2023-04-14T09:50:03.901Z,1.70
2023-04-14T09:52:45.450Z,1.90
2023-04-14T09:55:17.152Z,1.70
2023-04-14T09:57:47.946Z,1.60
2023-04-14T10:00:22.539Z,1.72
2023-04-14T10:02:54.275Z,1.52
2023-04-14T10:07:52.618Z,1.80
2023-04-14T10:10:23.047Z,2.35
2023-04-14T10:12:54.603Z,1.80
2023-04-14T10:15:24.041Z,1.90
2023-04-14T10:17:53.358Z,1.85
2023-04-14T10:20:23.480Z,1.80
2023-04-14T10:22:54.341Z,1.50
2023-04-14T10:25:24.438Z,1.82
2023-04-14T10:27:53.960Z,1.92
2023-04-14T10:30:23.966Z,1.80
2023-04-14T10:32:53.620Z,1.85
2023-04-14T10:35:23.200Z,1.70
2023-04-14T10:37:53.715Z,1.85
2023-04-14T10:40:23.490Z,1.87
2023-04-14T10:42:55.067Z,1.90
2023-04-14T10:45:24.693Z,1.85
2023-04-14T10:47:53.919Z,1.90
2023-04-14T10:50:27.322Z,1.90
2023-04-14T10:52:58.816Z,1.70
2023-04-14T10:55:29.251Z,1.80
2023-04-14T10:58:01.975Z,1.80
2023-04-14T11:00:34.238Z,1.80
2023-04-14T11:03:12.262Z,1.60
2023-04-14T11:05:46.372Z,1.30
2023-04-14T11:08:28.283Z,1.45
2023-04-14T11:11:02.367Z,1.43
2023-04-14T11:13:33.126Z,1.80
2023-04-14T11:16:05.838Z,1.72
2023-04-14T11:18:45.382Z,1.80
2023-04-14T11:21:16.407Z,1.60
2023-04-14T11:23:46.806Z,1.67
2023-04-14T11:26:16.244Z,1.45
2023-04-14T11:28:46.680Z,1.70
2023-04-14T11:31:23.021Z,1.50
2023-04-14T11:33:51.047Z,1.40
2023-04-14T11:36:20.428Z,1.57
2023-04-14T11:38:50.095Z,1.60
2023-04-14T11:41:20.380Z,1.72
2023-04-14T11:43:50.003Z,1.40
2023-04-14T11:46:22.416Z,1.80
2023-04-14T11:51:32.685Z,1.30
2023-04-14T11:54:02.488Z,1.37
2023-04-14T11:56:33.274Z,1.52
2023-04-14T11:59:04.376Z,1.40
2023-04-14T12:01:34.002Z,1.40
2023-04-14T12:04:06.444Z,1.35
2023-04-14T12:09:10.040Z,1.45
2023-04-14T12:11:39.642Z,1.60
2023-04-14T12:14:09.334Z,1.72
2023-04-14T12:16:38.715Z,1.50
2023-04-14T12:19:08.052Z,1.45
2023-04-14T12:21:37.673Z,2.10
2023-04-14T12:24:06.993Z,1.67
2023-04-14T12:26:37.922Z,1.60
2023-04-14T12:29:08.137Z,1.50
2023-04-14T12:31:37.466Z,1.30
2023-04-14T12:34:06.748Z,1.67
2023-04-14T12:36:50.140Z,1.25
2023-04-14T12:39:13.013Z,1.32
2023-04-14T12:41:42.761Z,1.57
2023-04-14T12:44:17.221Z,1.55
2023-04-14T12:46:50.755Z,1.37
2023-04-14T12:49:39.350Z,1.37
2023-04-14T12:52:08.951Z,1.37
2023-04-14T12:54:55.050Z,1.25
2023-04-14T12:57:24.705Z,1.40
2023-04-14T12:59:54.319Z,1.30
2023-04-14T13:02:24.275Z,1.35
2023-04-14T13:04:53.676Z,1.40
2023-04-14T13:07:23.420Z,1.22
2023-04-14T13:09:53.644Z,1.40
2023-04-14T13:12:22.978Z,1.30
2023-04-14T13:14:53.793Z,1.45
2023-04-14T13:17:23.196Z,1.20
2023-04-14T13:19:54.105Z,1.55
2023-04-14T13:22:23.589Z,1.75
2023-04-14T13:24:53.110Z,1.20
2023-04-14T13:27:22.375Z,1.27
2023-04-14T13:29:51.666Z,1.30
2023-04-14T13:32:21.381Z,1.70
2023-04-14T13:34:52.642Z,1.70
2023-04-14T13:41:50.059Z,1.45
2023-04-14T13:44:19.616Z,1.55
2023-04-14T13:46:50.360Z,1.37
2023-04-14T13:49:19.921Z,1.60
2023-04-14T13:51:49.479Z,1.37
2023-04-14T13:54:18.732Z,1.30
2023-04-14T13:56:48.095Z,1.47
2023-04-14T13:59:17.375Z,1.50
2023-04-14T14:02:02.181Z,1.92
2023-04-14T14:04:31.843Z,1.60
2023-04-14T14:07:01.545Z,1.50
2023-04-14T14:09:30.841Z,1.87
2023-04-14T14:12:00.478Z,1.67
2023-04-14T14:14:29.751Z,1.47
2023-04-14T14:16:59.015Z,1.50
2023-04-14T14:19:28.603Z,1.60
2023-04-14T14:21:58.020Z,1.52
2023-04-14T14:24:27.325Z,1.20
2023-04-14T14:26:57.142Z,1.67
2023-04-14T14:29:26.373Z,1.47
2023-04-14T14:31:55.722Z,1.42
2023-04-14T14:34:25.310Z,1.30
2023-04-14T14:36:55.357Z,1.35
2023-04-14T14:39:29.410Z,1.40
2023-04-14T14:41:59.059Z,1.90
2023-04-14T14:44:28.569Z,1.80
2023-04-14T14:46:58.977Z,1.02
2023-04-14T14:49:28.217Z,1.45
2023-04-14T14:51:57.515Z,1.57
2023-04-14T14:54:26.969Z,1.57
2023-04-14T14:56:56.949Z,1.12
2023-04-14T14:59:26.351Z,1.50
2023-04-14T15:01:56.193Z,1.37
2023-04-14T15:04:25.790Z,1.47
2023-04-14T15:06:55.274Z,1.50
2023-04-14T15:09:24.750Z,1.45
2023-04-14T15:11:54.201Z,1.40
2023-04-14T15:14:24.357Z,1.25
2023-04-14T15:19:33.593Z,1.20
2023-04-14T15:22:02.930Z,1.30
2023-04-14T15:24:32.192Z,1.25
2023-04-14T15:27:03.106Z,1.42
2023-04-14T15:29:32.446Z,1.30
2023-04-14T15:32:02.162Z,1.57
2023-04-14T15:34:31.508Z,1.42
2023-04-14T15:37:01.223Z,1.20
2023-04-14T15:39:30.568Z,1.30
2023-04-14T15:42:01.468Z,1.17
2023-04-14T15:44:31.017Z,1.20
2023-04-14T15:47:02.370Z,1.40
2023-04-14T15:49:31.946Z,1.52
2023-04-14T15:52:01.302Z,1.50
2023-04-14T15:54:31.716Z,1.67
2023-04-14T15:57:02.486Z,1.30
2023-04-14T15:59:32.635Z,1.50
2023-04-14T16:02:03.092Z,1.30
2023-04-14T16:04:32.721Z,1.32
2023-04-14T16:07:02.526Z,1.30
2023-04-14T16:09:31.796Z,1.12
2023-04-14T16:12:01.524Z,1.40
2023-04-14T16:14:35.419Z,1.30
2023-04-14T16:17:04.726Z,1.30
2023-04-14T16:19:33.985Z,1.30
2023-04-14T16:22:03.284Z,1.20
2023-04-14T16:24:32.975Z,1.10
2023-04-14T16:27:02.913Z,1.10
2023-04-14T16:29:32.422Z,1.27
2023-04-14T16:32:02.343Z,1.10
2023-04-14T16:34:31.970Z,1.00
2023-04-14T16:37:01.268Z,0.90
2023-04-14T16:39:31.650Z,1.00
2023-04-14T16:42:02.647Z,1.05
2023-04-14T16:44:32.548Z,1.10
2023-04-14T16:47:01.921Z,1.00
2023-04-14T16:49:31.705Z,1.00
2023-04-14T16:52:01.472Z,1.40
2023-04-14T16:54:30.712Z,1.25
2023-04-14T16:57:00.703Z,1.40
2023-04-14T16:59:31.050Z,1.50
2023-04-14T17:02:01.231Z,1.70
2023-04-14T17:04:32.721Z,1.10
2023-04-14T17:07:02.328Z,1.67
2023-04-14T17:09:32.335Z,1.92
2023-04-14T17:12:01.927Z,2.50
2023-04-14T17:14:31.429Z,2.83
2023-04-14T17:17:00.767Z,2.50
2023-04-14T17:19:30.333Z,3.02
2023-04-14T17:21:59.681Z,2.50
2023-04-14T17:24:29.545Z,2.30
2023-04-14T17:27:00.654Z,2.25
2023-04-14T17:29:29.938Z,2.40
2023-04-14T17:31:59.827Z,2.20
2023-04-14T17:34:29.699Z,2.65
2023-04-14T17:36:59.497Z,1.95
2023-04-14T17:39:29.153Z,1.80
2023-04-14T17:41:58.946Z,1.60
2023-04-14T17:44:36.498Z,1.70
2023-04-14T17:47:07.521Z,1.77
2023-04-14T17:49:37.073Z,1.70
2023-04-14T17:52:09.295Z,1.57
2023-04-14T17:54:38.640Z,1.55
2023-04-14T17:57:10.035Z,1.60
2023-04-14T17:59:43.338Z,1.52
2023-04-14T18:02:16.334Z,1.95
2023-04-14T18:04:47.268Z,2.20
2023-04-14T18:07:17.494Z,1.60
2023-04-14T18:09:47.716Z,1.70
2023-04-14T18:12:16.964Z,1.70
2023-04-14T18:14:46.382Z,1.47
2023-04-14T18:17:15.859Z,1.52
2023-04-14T18:19:45.567Z,1.70
2023-04-14T18:22:15.019Z,3.60
2023-04-14T18:29:46.664Z,2.10
2023-04-14T18:32:16.237Z,2.05
2023-04-14T18:34:46.181Z,3.45
2023-04-14T18:37:15.992Z,3.30
2023-04-14T18:39:45.563Z,2.30
2023-04-14T18:42:15.216Z,2.33
2023-04-14T18:44:44.662Z,2.60
2023-04-14T18:47:14.311Z,2.47
2023-04-14T18:49:43.772Z,2.35
2023-04-14T18:52:13.099Z,2.12
2023-04-14T18:54:42.843Z,2.08
2023-04-14T18:57:12.145Z,2.40
2023-04-14T18:59:41.954Z,2.20
2023-04-14T19:02:13.594Z,2.30
2023-04-14T19:04:43.476Z,4.78
2023-04-14T19:07:13.188Z,2.80
2023-04-14T19:09:42.720Z,2.80
2023-04-14T19:12:21.793Z,3.85
2023-04-14T19:14:45.377Z,3.45
2023-04-14T19:17:14.637Z,2.95
2023-04-14T19:19:44.168Z,2.83
2023-04-14T19:22:15.197Z,2.67
2023-04-14T19:24:45.216Z,2.60
2023-04-14T19:27:14.983Z,2.90
2023-04-14T19:29:44.548Z,2.15
2023-04-14T19:32:14.113Z,3.20
2023-04-14T19:34:43.547Z,3.30
2023-04-14T19:37:13.554Z,3.12
2023-04-14T19:39:43.237Z,3.08
2023-04-14T19:42:12.909Z,3.47
2023-04-14T19:44:42.760Z,2.83
2023-04-14T19:47:12.572Z,2.60
2023-04-14T19:49:42.734Z,2.47
2023-04-14T19:52:12.225Z,3.10
2023-04-14T19:54:41.469Z,2.80
2023-04-14T19:57:11.249Z,2.77
2023-04-14T19:59:40.727Z,3.20
2023-04-14T20:02:11.750Z,3.20
2023-04-14T20:04:41.257Z,2.60
2023-04-14T20:07:10.628Z,2.40
2023-04-14T20:09:41.660Z,3.08
2023-04-14T20:12:11.133Z,3.50
2023-04-14T20:14:41.453Z,4.55
2023-04-14T20:17:12.915Z,4.60
2023-04-14T20:19:42.707Z,4.30
2023-04-14T20:22:12.621Z,4.00
2023-04-14T20:24:42.043Z,3.70
2023-04-14T20:27:11.680Z,3.85
2023-04-14T20:29:40.956Z,3.65
2023-04-14T20:32:10.431Z,3.60
2023-04-14T20:34:40.765Z,3.77
2023-04-14T20:37:10.030Z,3.70
2023-04-14T20:39:42.363Z,4.08
2023-04-14T20:42:11.647Z,4.03
2023-04-14T20:44:41.755Z,4.10
2023-04-14T20:47:11.043Z,4.20
2023-04-14T20:49:41.398Z,3.95
2023-04-14T20:52:10.870Z,4.17
2023-04-14T20:54:40.476Z,4.30
2023-04-14T20:57:10.718Z,4.00
2023-04-14T20:59:40.098Z,4.30
2023-04-14T21:02:09.510Z,4.75
2023-04-14T21:04:39.201Z,4.53
2023-04-14T21:07:08.645Z,5.03
2023-04-14T21:09:37.908Z,4.87
2023-04-14T21:12:15.517Z,4.42
2023-04-14T21:15:49.577Z,4.33
2023-04-14T21:17:11.765Z,4.92
2023-04-14T21:19:42.232Z,4.45
2023-04-14T21:22:11.683Z,5.20
2023-04-14T21:24:42.718Z,4.80
2023-04-14T21:27:12.455Z,5.37
2023-04-14T21:29:41.866Z,5.55
2023-04-14T21:32:12.298Z,5.00
2023-04-14T21:34:42.447Z,5.10
2023-04-14T21:37:14.247Z,5.85
2023-04-14T21:39:43.875Z,5.62
2023-04-14T21:42:14.001Z,5.70
2023-04-14T21:44:44.384Z,6.95
2023-04-14T21:47:14.072Z,6.45
2023-04-14T21:49:43.367Z,6.50
2023-04-14T21:52:13.139Z,6.50
2023-04-14T21:54:44.269Z,6.50
2023-04-14T21:57:14.105Z,7.25
2023-04-14T21:59:43.464Z,6.70
2023-04-14T22:02:13.716Z,6.62
2023-04-14T22:04:43.267Z,7.22
2023-04-14T22:07:12.725Z,7.00
2023-04-14T22:09:43.828Z,7.55
2023-04-14T22:12:13.160Z,7.67
2023-04-14T22:14:42.566Z,6.87
2023-04-14T22:17:12.109Z,7.47
2023-04-14T22:19:41.686Z,7.30
2023-04-14T22:22:11.337Z,7.78
2023-04-14T22:24:40.790Z,7.25
2023-04-14T22:27:10.299Z,6.83
2023-04-14T22:29:39.599Z,7.65
2023-04-14T22:32:08.840Z,7.58
2023-04-14T22:34:38.441Z,7.17
2023-04-14T22:37:07.955Z,7.00
2023-04-14T22:39:37.304Z,6.85
2023-04-14T22:42:07.248Z,7.15
2023-04-14T22:44:37.374Z,7.30
2023-04-14T22:47:07.002Z,7.60
2023-04-14T22:49:36.448Z,6.80
2023-04-14T22:52:06.624Z,6.95
2023-04-14T22:54:36.539Z,7.70
2023-04-14T22:57:06.697Z,7.37
2023-04-14T22:59:37.086Z,7.70
2023-04-14T23:02:07.347Z,7.65
2023-04-14T23:04:36.939Z,8.05
2023-04-14T23:07:06.652Z,7.60
2023-04-14T23:09:36.120Z,7.47
2023-04-14T23:12:06.246Z,7.12
2023-04-14T23:14:35.778Z,7.50
2023-04-14T23:17:05.004Z,7.12
2023-04-14T23:19:35.755Z,7.83
2023-04-14T23:22:05.010Z,7.80
2023-04-14T23:24:34.462Z,8.13
2023-04-14T23:27:04.074Z,8.25
2023-04-14T23:29:33.385Z,8.10
2023-04-14T23:32:02.990Z,8.03
2023-04-14T23:34:32.458Z,7.85
2023-04-14T23:37:02.371Z,8.80
2023-04-14T23:39:31.792Z,7.80
2023-04-14T23:42:01.049Z,7.78
2023-04-14T23:44:30.317Z,7.40
2023-04-14T23:47:00.074Z,7.40
2023-04-14T23:49:34.259Z,7.70
2023-04-14T23:52:00.683Z,7.37
2023-04-14T23:54:31.104Z,7.65
2023-04-14T23:57:00.457Z,7.80
2023-04-14T23:59:29.944Z,8.00
